Time;durP1;ratioP1;P1;durP2;ratioP2;P2;SDS_P1;SDS_P2;PMS_P1;PMS_P2;Temp;Humidity;BMP_temperature;BMP_pressure;BME280_temperature;BME280_humidity;BME280_pressure;Samples;Min_cycle;Max_cycle;Signal;HPM_P1;HPM_P2
2022/10/17 00:01:08;;;;;;;8.85;6.75;;;15.90;99.90;;;;;;5099243;28;20188;-66
2022/10/17 00:03:35;;;;;;;8.77;6.47;;;15.80;99.90;;;;;;5096005;28;20325;-64
2022/10/17 00:06:12;;;;;;;7.05;6.22;;;15.80;99.90;;;;;;5095446;28;20218;-64
2022/10/17 00:08:39;;;;;;;10.02;7.03;;;15.80;99.90;;;;;;5103942;28;20182;-64
2022/10/17 00:11:08;;;;;;;9.60;6.97;;;15.90;99.90;;;;;;5109297;27;20513;-64
2022/10/17 00:13:34;;;;;;;9.73;7.10;;;15.80;99.90;;;;;;5093773;28;20227;-65
2022/10/17 00:16:00;;;;;;;7.60;6.35;;;15.90;99.90;;;;;;5078453;28;20229;-65
2022/10/17 00:18:26;;;;;;;10.02;7.57;;;15.90;99.90;;;;;;5095394;28;20245;-64
2022/10/17 00:20:52;;;;;;;9.25;6.28;;;15.90;99.90;;;;;;5093510;28;20276;-64
2022/10/17 00:23:18;;;;;;;8.30;6.50;;;16.00;99.90;;;;;;5105774;28;20274;-64
2022/10/17 00:25:44;;;;;;;8.50;6.70;;;16.00;99.90;;;;;;5093552;28;20245;-64
2022/10/17 00:28:11;;;;;;;10.55;7.50;;;16.00;99.90;;;;;;5099461;28;20188;-64
2022/10/17 00:30:37;;;;;;;8.40;6.75;;;16.10;99.90;;;;;;5095588;28;20723;-64
2022/10/17 00:33:03;;;;;;;8.55;7.28;;;16.10;99.90;;;;;;5091852;28;20205;-64
2022/10/17 00:35:29;;;;;;;8.50;6.85;;;16.10;99.90;;;;;;5092349;28;20275;-64
2022/10/17 00:37:54;;;;;;;7.57;6.63;;;16.00;99.90;;;;;;5098576;28;20211;-64
2022/10/17 00:40:20;;;;;;;9.57;7.43;;;16.10;99.90;;;;;;5092980;28;20219;-64
2022/10/17 00:42:47;;;;;;;9.10;6.50;;;16.10;99.90;;;;;;5098818;28;20186;-63
2022/10/17 00:45:18;;;;;;;8.82;6.85;;;16.20;99.90;;;;;;5095712;28;20195;-64
2022/10/17 00:47:48;;;;;;;11.05;7.18;;;16.20;99.90;;;;;;5096145;28;20179;-64
2022/10/17 00:50:14;;;;;;;15.13;7.05;;;16.10;99.90;;;;;;5103051;28;20175;-64
2022/10/17 00:52:41;;;;;;;10.18;7.40;;;16.10;99.90;;;;;;5095849;28;20690;-64
2022/10/17 00:55:36;;;;;;;10.23;7.32;;;16.20;99.90;;;;;;5091337;28;20183;-64
2022/10/17 00:58:04;;;;;;;11.25;6.68;;;16.10;99.90;;;;;;5091848;28;20645;-64
2022/10/17 01:00:30;;;;;;;8.70;7.30;;;16.10;99.90;;;;;;5092998;28;20181;-64
2022/10/17 01:02:55;;;;;;;8.35;6.93;;;16.10;99.90;;;;;;5093979;28;20180;-65
2022/10/17 01:05:21;;;;;;;9.00;7.32;;;16.10;99.90;;;;;;5098069;28;20181;-65
2022/10/17 01:07:49;;;;;;;8.50;7.10;;;16.20;99.90;;;;;;5092605;28;20187;-64
2022/10/17 01:10:16;;;;;;;8.15;6.35;;;16.20;99.90;;;;;;5096264;28;20273;-65
2022/10/17 01:12:45;;;;;;;8.85;7.43;;;16.20;99.90;;;;;;5106459;28;20199;-64
2022/10/17 01:15:46;;;;;;;9.63;6.82;;;16.20;99.90;;;;;;5126128;27;21578;-65
2022/10/17 01:18:23;;;;;;;8.27;6.68;;;16.30;99.90;;;;;;5101479;28;20179;-65
2022/10/17 01:21:09;;;;;;;12.10;7.68;;;16.40;99.90;;;;;;5096727;28;20259;-65
2022/10/17 01:24:16;;;;;;;10.95;6.78;;;16.70;99.90;;;;;;5108797;28;20171;-65
2022/10/17 01:26:59;;;;;;;9.88;6.97;;;16.70;99.90;;;;;;5108226;28;20184;-64
2022/10/17 01:29:29;;;;;;;10.15;6.55;;;16.70;99.90;;;;;;5095784;28;20234;-64
2022/10/17 01:32:27;;;;;;;15.38;7.20;;;16.70;99.90;;;;;;5096356;28;20192;-65
2022/10/17 01:35:17;;;;;;;10.80;7.50;;;16.80;99.90;;;;;;5083442;28;20220;-64
2022/10/17 01:38:08;;;;;;;11.85;6.82;;;16.80;99.90;;;;;;5101282;28;20873;-65
2022/10/17 01:40:39;;;;;;;11.02;7.30;;;16.90;99.90;;;;;;5101457;28;20275;-64
2022/10/17 01:43:28;;;;;;;9.90;7.70;;;17.00;99.90;;;;;;5095580;28;20646;-64
2022/10/17 01:46:11;;;;;;;10.32;7.53;;;17.00;99.90;;;;;;5097994;28;20175;-65
2022/10/17 01:48:41;;;;;;;12.13;7.75;;;17.00;99.90;;;;;;5104582;28;20180;-65
2022/10/17 01:51:18;;;;;;;11.18;7.88;;;17.10;99.90;;;;;;5095187;28;20528;-65
2022/10/17 01:53:53;;;;;;;11.20;7.95;;;17.20;99.90;;;;;;5095605;28;20208;-64
2022/10/17 01:56:23;;;;;;;12.18;7.47;;;17.20;99.90;;;;;;5099807;28;20195;-64
2022/10/17 01:58:54;;;;;;;9.93;7.63;;;17.30;99.90;;;;;;5109825;28;20180;-65
2022/10/17 02:01:21;;;;;;;11.43;7.20;;;17.20;99.90;;;;;;5097947;28;20164;-65
2022/10/17 02:03:49;;;;;;;12.25;7.72;;;17.30;99.90;;;;;;5098906;28;20181;-66
2022/10/17 02:06:15;;;;;;;12.82;8.98;;;17.30;99.90;;;;;;5095494;28;20225;-64
2022/10/17 02:08:47;;;;;;;14.85;8.10;;;17.30;99.90;;;;;;5117993;27;20188;-64
2022/10/17 02:11:15;;;;;;;12.32;8.30;;;17.30;99.90;;;;;;5109631;28;20591;-64
2022/10/17 02:14:18;;;;;;;12.20;8.15;;;17.30;99.90;;;;;;5113608;28;20263;-65
2022/10/17 02:17:08;;;;;;;12.55;7.70;;;17.40;99.90;;;;;;5099104;28;20371;-66
2022/10/17 02:19:46;;;;;;;12.52;7.55;;;17.40;99.90;;;;;;5111066;27;20279;-65
2022/10/17 02:22:36;;;;;;;12.43;9.57;;;17.40;99.90;;;;;;5098434;28;20179;-65
2022/10/17 02:25:16;;;;;;;11.45;7.22;;;17.50;99.90;;;;;;5104362;28;20258;-64
2022/10/17 02:28:03;;;;;;;8.60;6.68;;;17.50;99.90;;;;;;5106992;28;20172;-64
2022/10/17 02:30:32;;;;;;;8.25;6.57;;;17.50;99.90;;;;;;5103779;28;20211;-65
2022/10/17 02:33:00;;;;;;;10.02;6.43;;;17.50;99.90;;;;;;5102093;28;20681;-65
2022/10/17 02:35:30;;;;;;;9.02;6.70;;;17.50;99.90;;;;;;5099552;28;20177;-65
2022/10/17 02:37:57;;;;;;;9.68;6.65;;;17.60;99.90;;;;;;5110257;28;20539;-64
2022/10/17 02:40:25;;;;;;;10.10;7.22;;;17.70;99.90;;;;;;5097016;28;20275;-65
2022/10/17 02:42:53;;;;;;;10.82;7.82;;;17.60;99.90;;;;;;5102149;28;20192;-65
2022/10/17 02:45:19;;;;;;;7.68;6.70;;;17.70;99.90;;;;;;5109123;28;20188;-64
2022/10/17 02:47:51;;;;;;;10.43;7.00;;;17.70;99.90;;;;;;5113290;28;20275;-65
2022/10/17 02:50:24;;;;;;;7.70;6.00;;;17.70;99.90;;;;;;5097148;28;20180;-64
2022/10/17 02:52:54;;;;;;;13.30;6.78;;;17.70;99.90;;;;;;5100340;28;20291;-65
2022/10/17 02:55:28;;;;;;;9.57;7.15;;;17.70;99.90;;;;;;5104517;28;20521;-65
2022/10/17 02:58:09;;;;;;;10.70;7.22;;;17.70;99.90;;;;;;5109143;28;20177;-65
2022/10/17 03:00:39;;;;;;;12.77;7.50;;;17.80;99.90;;;;;;5096764;28;20185;-64
2022/10/17 03:03:27;;;;;;;11.40;5.95;;;17.80;99.90;;;;;;5106944;28;20274;-65
2022/10/17 03:05:53;;;;;;;9.60;7.05;;;17.90;99.90;;;;;;5105113;28;20182;-65
2022/10/17 03:08:20;;;;;;;9.50;6.40;;;17.90;99.90;;;;;;5103042;28;20189;-64
2022/10/17 03:10:45;;;;;;;10.15;6.55;;;18.00;99.90;;;;;;5109289;28;20237;-65
2022/10/17 03:13:11;;;;;;;9.63;6.65;;;18.00;99.90;;;;;;5112732;28;20199;-66
2022/10/17 03:15:37;;;;;;;11.52;7.30;;;18.00;99.90;;;;;;5101330;27;20563;-65
2022/10/17 03:18:03;;;;;;;12.65;6.88;;;18.00;99.90;;;;;;5099177;28;20650;-65
2022/10/17 03:20:28;;;;;;;9.30;7.22;;;18.00;99.90;;;;;;5094383;28;20211;-64
2022/10/17 03:22:54;;;;;;;9.43;6.30;;;18.00;99.90;;;;;;5093663;28;20180;-65
2022/10/17 03:25:19;;;;;;;8.90;6.47;;;18.10;99.90;;;;;;5092873;28;20189;-65
2022/10/17 03:27:45;;;;;;;8.82;7.32;;;18.10;99.90;;;;;;5096527;28;20184;-64
2022/10/17 03:30:11;;;;;;;12.48;7.15;;;18.10;99.90;;;;;;5092680;28;20188;-64
2022/10/17 03:32:36;;;;;;;10.20;5.80;;;18.10;99.90;;;;;;5092872;28;20211;-65
2022/10/17 03:35:02;;;;;;;10.65;7.32;;;18.10;99.90;;;;;;5095514;28;20646;-65
2022/10/17 03:37:28;;;;;;;11.75;8.00;;;18.20;99.90;;;;;;5111917;28;20195;-65
2022/10/17 03:39:54;;;;;;;7.15;5.55;;;18.30;99.90;;;;;;5098323;28;20188;-65
2022/10/17 03:42:20;;;;;;;9.73;5.82;;;18.30;99.90;;;;;;5104945;28;20189;-65
2022/10/17 03:44:45;;;;;;;10.73;7.20;;;18.30;99.90;;;;;;5100632;28;20184;-65
2022/10/17 03:47:11;;;;;;;10.25;6.50;;;18.30;99.90;;;;;;5106266;28;20270;-65
2022/10/17 03:49:37;;;;;;;8.75;6.70;;;18.30;99.90;;;;;;5109220;28;20625;-65
2022/10/17 03:52:02;;;;;;;11.73;7.45;;;18.30;99.90;;;;;;5093182;28;20212;-66
2022/10/17 03:54:28;;;;;;;12.48;6.55;;;18.30;99.90;;;;;;5096859;28;20184;-65
2022/10/17 03:56:53;;;;;;;11.60;6.13;;;18.30;99.90;;;;;;5093360;28;20271;-65
2022/10/17 03:59:19;;;;;;;10.43;5.45;;;18.40;99.90;;;;;;5126232;27;20615;-65
2022/10/17 04:01:45;;;;;;;9.77;6.93;;;18.30;99.90;;;;;;5092955;28;20223;-65
2022/10/17 04:04:10;;;;;;;9.00;6.43;;;18.30;99.90;;;;;;5096905;28;20200;-65
2022/10/17 04:06:37;;;;;;;9.23;6.63;;;18.30;99.90;;;;;;5092106;28;20192;-65
2022/10/17 04:09:04;;;;;;;9.10;5.70;;;18.40;99.90;;;;;;5111513;28;20188;-65
2022/10/17 04:11:30;;;;;;;9.70;6.15;;;18.40;99.90;;;;;;5103238;28;20211;-65
2022/10/17 04:13:58;;;;;;;7.95;5.80;;;18.40;99.90;;;;;;5098075;28;20215;-65
2022/10/17 04:16:25;;;;;;;7.97;6.18;;;18.40;99.90;;;;;;5096551;28;20176;-66
2022/10/17 04:18:56;;;;;;;9.73;5.90;;;18.40;99.90;;;;;;5092574;28;20928;-65
2022/10/17 04:21:23;;;;;;;9.30;6.53;;;18.40;99.90;;;;;;5099365;28;20180;-65
2022/10/17 04:23:56;;;;;;;9.23;6.50;;;18.40;99.90;;;;;;5100355;28;20184;-65
2022/10/17 04:26:22;;;;;;;7.78;6.30;;;18.40;99.90;;;;;;5103523;28;20275;-65
2022/10/17 04:28:48;;;;;;;8.95;6.22;;;18.40;99.90;;;;;;5099771;28;20280;-65
2022/10/17 04:31:15;;;;;;;12.23;7.43;;;18.40;99.90;;;;;;5102247;28;20236;-65
2022/10/17 04:33:41;;;;;;;7.30;5.90;;;18.50;99.90;;;;;;5100169;28;20219;-65
2022/10/17 04:36:10;;;;;;;7.93;6.13;;;18.50;99.90;;;;;;5101047;28;20650;-65
2022/10/17 04:38:36;;;;;;;9.10;6.60;;;18.40;99.90;;;;;;5076497;28;20184;-65
2022/10/17 04:41:05;;;;;;;8.90;6.35;;;18.40;99.90;;;;;;5111351;28;20187;-65
2022/10/17 04:43:35;;;;;;;7.25;5.20;;;18.40;99.90;;;;;;5100501;28;20183;-66
2022/10/17 04:46:04;;;;;;;9.50;5.97;;;18.30;99.90;;;;;;5110947;28;20637;-65
2022/10/17 04:48:30;;;;;;;12.02;6.22;;;18.30;99.90;;;;;;5103123;28;20215;-65
2022/10/17 04:51:02;;;;;;;8.38;6.65;;;18.30;99.90;;;;;;5114511;27;20633;-65
2022/10/17 04:53:30;;;;;;;7.40;5.55;;;18.30;99.90;;;;;;5111195;28;20272;-66
2022/10/17 04:55:56;;;;;;;9.20;6.13;;;18.10;99.90;;;;;;5105360;28;20193;-65
2022/10/17 04:58:22;;;;;;;7.30;5.43;;;18.20;99.90;;;;;;5099034;28;20192;-65
2022/10/17 05:00:48;;;;;;;6.40;4.88;;;18.20;99.90;;;;;;5098675;28;20192;-65
2022/10/17 05:03:14;;;;;;;10.90;6.78;;;18.20;99.90;;;;;;5100782;28;20680;-65
2022/10/17 05:05:40;;;;;;;8.18;6.68;;;18.20;99.90;;;;;;5111268;28;20240;-65
2022/10/17 05:08:08;;;;;;;7.00;5.57;;;18.20;99.90;;;;;;5097087;28;20511;-65
2022/10/17 05:10:38;;;;;;;8.40;6.13;;;18.30;99.90;;;;;;5099207;28;20211;-65
2022/10/17 05:13:04;;;;;;;11.10;5.75;;;18.30;99.90;;;;;;5106342;28;20328;-65
2022/10/17 05:15:30;;;;;;;8.88;5.70;;;18.30;99.90;;;;;;5105934;28;20202;-65
2022/10/17 05:17:56;;;;;;;7.18;5.28;;;18.30;99.90;;;;;;5099142;28;20180;-65
2022/10/17 05:20:22;;;;;;;7.95;6.05;;;18.20;99.90;;;;;;5115132;28;20210;-67
2022/10/17 05:22:48;;;;;;;12.55;6.45;;;18.10;99.90;;;;;;5095865;28;20525;-66
2022/10/17 05:25:13;;;;;;;8.10;6.38;;;18.20;99.90;;;;;;5095119;28;20261;-65
2022/10/17 05:27:39;;;;;;;7.15;5.75;;;18.30;99.90;;;;;;5098855;28;20208;-65
2022/10/17 05:30:05;;;;;;;7.55;5.82;;;18.30;99.90;;;;;;5098429;28;20192;-64
2022/10/17 05:32:31;;;;;;;7.57;5.97;;;18.30;99.90;;;;;;5096197;28;20208;-64
2022/10/17 05:34:56;;;;;;;8.13;6.47;;;18.30;99.90;;;;;;5113477;28;20527;-64
2022/10/17 05:37:22;;;;;;;7.97;6.32;;;18.30;99.90;;;;;;5096356;28;20188;-64
2022/10/17 05:39:48;;;;;;;8.77;6.38;;;18.30;99.90;;;;;;5107445;28;20223;-65
2022/10/17 05:42:13;;;;;;;8.18;5.70;;;18.30;99.90;;;;;;5103235;28;20191;-64
2022/10/17 05:44:40;;;;;;;10.32;5.70;;;18.30;99.90;;;;;;5113747;28;20184;-65
2022/10/17 05:47:06;;;;;;;9.15;5.43;;;18.40;99.90;;;;;;5096481;28;20188;-65
2022/10/17 05:49:32;;;;;;;10.00;7.07;;;18.30;99.90;;;;;;5101408;28;20221;-65
2022/10/17 05:51:58;;;;;;;8.38;5.93;;;18.30;99.90;;;;;;5101654;28;20212;-65
2022/10/17 05:54:23;;;;;;;7.63;6.07;;;18.30;99.90;;;;;;5091092;28;20185;-65
2022/10/17 05:56:53;;;;;;;9.38;5.47;;;18.30;99.90;;;;;;5093588;28;20652;-65
2022/10/17 05:59:19;;;;;;;6.47;5.55;;;18.30;99.90;;;;;;5101758;28;20595;-66
2022/10/17 06:01:45;;;;;;;9.05;5.93;;;18.30;99.90;;;;;;5094319;28;20185;-65
2022/10/17 06:04:10;;;;;;;7.63;6.10;;;18.30;99.90;;;;;;5109435;28;20676;-66
2022/10/17 06:06:36;;;;;;;10.68;5.72;;;18.40;99.90;;;;;;5093678;28;20230;-65
2022/10/17 06:09:03;;;;;;;6.70;5.47;;;18.40;99.90;;;;;;5098890;28;20188;-65
2022/10/17 06:11:29;;;;;;;5.90;5.30;;;18.40;99.90;;;;;;5099630;28;20752;-65
2022/10/17 06:13:55;;;;;;;11.50;5.30;;;18.30;99.90;;;;;;5105368;28;20181;-65
2022/10/17 06:16:20;;;;;;;8.27;5.78;;;18.30;99.90;;;;;;5101418;28;20188;-65
2022/10/17 06:18:46;;;;;;;7.10;5.35;;;18.40;99.90;;;;;;5100366;28;20188;-65
2022/10/17 06:21:15;;;;;;;7.53;5.63;;;18.50;99.90;;;;;;5109982;28;20187;-65
2022/10/17 06:23:41;;;;;;;9.07;6.07;;;18.50;99.90;;;;;;5105328;28;20181;-65
2022/10/17 06:26:07;;;;;;;7.07;5.40;;;18.50;99.90;;;;;;5097569;28;20181;-65
2022/10/17 06:28:33;;;;;;;7.13;5.75;;;18.50;99.90;;;;;;5095232;28;20188;-65
2022/10/17 06:31:03;;;;;;;8.57;6.68;;;18.50;99.90;;;;;;5096092;28;20181;-65
2022/10/17 06:33:28;;;;;;;7.05;6.05;;;18.60;99.90;;;;;;5101185;28;20200;-65
2022/10/17 06:35:55;;;;;;;7.57;6.20;;;18.60;99.90;;;;;;5109185;28;20236;-65
2022/10/17 06:38:21;;;;;;;11.35;8.05;;;18.60;99.90;;;;;;5110352;28;20177;-65
2022/10/17 06:40:47;;;;;;;8.60;6.63;;;18.60;99.90;;;;;;5107721;28;20664;-65
2022/10/17 06:43:13;;;;;;;8.32;6.20;;;18.60;99.90;;;;;;5102572;28;20196;-65
2022/10/17 06:45:39;;;;;;;8.18;5.70;;;18.60;99.90;;;;;;5099791;28;20215;-66
2022/10/17 06:48:06;;;;;;;7.82;4.82;;;18.60;99.90;;;;;;5095033;28;20191;-66
2022/10/17 06:50:32;;;;;;;7.57;5.50;;;18.60;99.90;;;;;;5106923;28;20232;-67
2022/10/17 06:52:57;;;;;;;7.63;6.13;;;18.70;99.90;;;;;;5093764;28;20224;-66
2022/10/17 06:55:23;;;;;;;8.73;5.53;;;18.70;99.90;;;;;;5097002;28;20622;-64
2022/10/17 06:57:50;;;;;;;9.55;6.97;;;18.70;99.90;;;;;;5108494;28;20209;-66
2022/10/17 07:00:16;;;;;;;7.60;6.10;;;18.60;99.90;;;;;;5094592;28;20204;-66
2022/10/17 07:02:43;;;;;;;9.35;5.25;;;18.70;99.90;;;;;;5116725;27;20555;-67
2022/10/17 07:05:09;;;;;;;6.28;5.50;;;18.60;99.90;;;;;;5094402;28;20675;-67
2022/10/17 07:07:35;;;;;;;7.00;5.05;;;18.50;99.90;;;;;;5095995;28;20593;-67
2022/10/17 07:10:02;;;;;;;7.25;4.53;;;18.60;99.90;;;;;;5112832;28;20219;-65
2022/10/17 07:12:28;;;;;;;7.10;4.90;;;18.70;99.90;;;;;;5105554;28;20707;-67
2022/10/17 07:14:54;;;;;;;8.02;5.38;;;18.70;99.90;;;;;;5108516;28;20184;-66
2022/10/17 07:17:19;;;;;;;5.32;4.18;;;18.80;99.90;;;;;;5097014;28;20195;-66
2022/10/17 07:19:45;;;;;;;4.47;4.07;;;18.80;99.90;;;;;;5092514;28;20246;-65
2022/10/17 07:22:11;;;;;;;5.45;4.72;;;18.70;99.90;;;;;;5094232;28;20227;-65
2022/10/17 07:24:37;;;;;;;8.02;4.43;;;18.70;99.90;;;;;;5098435;28;20180;-66
2022/10/17 07:27:03;;;;;;;4.88;3.95;;;18.80;99.90;;;;;;5103874;28;20180;-64
2022/10/17 07:29:28;;;;;;;4.10;3.40;;;18.80;99.90;;;;;;5095156;28;20271;-65
2022/10/17 07:31:54;;;;;;;4.30;3.55;;;18.60;99.90;;;;;;5095763;28;20254;-64
2022/10/17 07:34:20;;;;;;;3.85;3.53;;;18.70;99.90;;;;;;5107830;28;20184;-64
2022/10/17 07:36:46;;;;;;;4.97;3.10;;;18.60;99.90;;;;;;5099502;28;21771;-66
2022/10/17 07:39:11;;;;;;;6.97;3.83;;;18.50;99.90;;;;;;5099688;28;20648;-65
2022/10/17 07:41:37;;;;;;;2.88;2.65;;;18.40;99.90;;;;;;5096204;28;20192;-64
2022/10/17 07:44:03;;;;;;;3.63;3.22;;;18.60;99.90;;;;;;5094306;28;20578;-65
2022/10/17 07:46:29;;;;;;;6.40;3.88;;;18.60;99.90;;;;;;5094697;28;20612;-64
2022/10/17 07:48:55;;;;;;;4.47;4.07;;;18.60;99.90;;;;;;5092910;28;20211;-64
2022/10/17 07:51:20;;;;;;;3.97;3.47;;;18.60;99.90;;;;;;5106449;28;20208;-64
2022/10/17 07:53:47;;;;;;;4.70;3.63;;;18.60;99.90;;;;;;5109225;27;20239;-64
2022/10/17 07:56:13;;;;;;;4.78;3.85;;;18.40;99.90;;;;;;5106171;28;20188;-64
2022/10/17 07:58:39;;;;;;;3.90;3.50;;;18.40;99.90;;;;;;5092651;28;20689;-65
2022/10/17 08:01:07;;;;;;;6.35;3.53;;;18.40;99.90;;;;;;5119647;27;20218;-64
2022/10/17 08:03:32;;;;;;;4.15;3.78;;;18.40;99.90;;;;;;5102416;28;20194;-65
2022/10/17 08:05:59;;;;;;;3.80;3.42;;;18.30;99.90;;;;;;5100792;28;20180;-64
2022/10/17 08:08:26;;;;;;;5.35;3.67;;;18.40;99.90;;;;;;5095125;28;20188;-66
2022/10/17 08:10:53;;;;;;;6.20;4.03;;;18.40;99.90;;;;;;5101022;28;20781;-65
2022/10/17 08:13:20;;;;;;;5.40;4.50;;;18.20;99.90;;;;;;5101446;28;20699;-65
2022/10/17 08:15:46;;;;;;;6.43;3.58;;;18.40;99.90;;;;;;5107367;28;20595;-65
2022/10/17 08:18:16;;;;;;;3.45;3.20;;;18.40;99.90;;;;;;5111589;28;20264;-64
2022/10/17 08:20:42;;;;;;;4.78;3.50;;;18.20;99.90;;;;;;5095760;28;20323;-66
2022/10/17 08:23:08;;;;;;;4.28;3.35;;;18.20;99.90;;;;;;5102451;28;20192;-65
2022/10/17 08:25:34;;;;;;;5.03;3.55;;;18.20;99.90;;;;;;5096231;28;20193;-66
2022/10/17 08:27:59;;;;;;;7.50;3.72;;;18.10;99.90;;;;;;5093964;28;20598;-65
2022/10/17 08:30:25;;;;;;;7.45;4.45;;;18.20;99.90;;;;;;5094382;28;20188;-63
2022/10/17 08:32:51;;;;;;;4.93;3.92;;;18.40;99.90;;;;;;5098013;28;20258;-64
2022/10/17 08:35:16;;;;;;;4.78;4.30;;;18.40;99.90;;;;;;5112620;28;20199;-63
2022/10/17 08:37:42;;;;;;;5.57;4.35;;;18.30;99.90;;;;;;5095476;28;20263;-65
2022/10/17 08:40:22;;;;;;;8.38;4.95;;;18.20;99.90;;;;;;5101107;28;20188;-64
2022/10/17 08:43:33;;;;;;;8.93;5.72;;;18.30;99.90;;;;;;5100907;28;20271;-64
2022/10/17 08:46:04;;;;;;;7.43;4.95;;;18.40;99.90;;;;;;5103180;28;20180;-65
2022/10/17 08:48:35;;;;;;;6.90;5.72;;;18.50;99.90;;;;;;5103278;28;20172;-64
2022/10/17 08:51:09;;;;;;;8.98;6.68;;;18.60;99.90;;;;;;5099192;28;20187;-64
2022/10/17 08:53:56;;;;;;;6.63;5.32;;;18.50;99.90;;;;;;5098907;28;20189;-64
2022/10/17 08:56:32;;;;;;;10.60;6.75;;;18.40;99.90;;;;;;5097665;28;20694;-64
2022/10/17 08:58:58;;;;;;;10.40;6.22;;;18.60;99.90;;;;;;5097994;28;20292;-64
2022/10/17 09:01:32;;;;;;;10.70;5.88;;;18.60;99.90;;;;;;5092458;28;20287;-64
2022/10/17 09:04:22;;;;;;;8.90;6.03;;;18.50;99.90;;;;;;5094330;28;20267;-64
2022/10/17 09:07:12;;;;;;;10.18;7.13;;;18.60;99.90;;;;;;5096331;28;20183;-62
2022/10/17 09:09:43;;;;;;;8.82;7.10;;;18.60;99.90;;;;;;5096292;28;20177;-63
2022/10/17 09:12:09;;;;;;;8.57;6.72;;;18.50;99.90;;;;;;5103521;28;20360;-64
2022/10/17 09:14:41;;;;;;;7.35;6.57;;;18.40;99.90;;;;;;5096033;28;20850;-63
2022/10/17 09:17:55;;;;;;;8.75;7.43;;;18.40;99.90;;;;;;5091321;28;20180;-64
2022/10/17 09:20:23;;;;;;;9.73;7.05;;;18.40;99.90;;;;;;5078503;28;20196;-63
2022/10/17 09:23:00;;;;;;;9.43;7.20;;;18.40;99.90;;;;;;5090023;28;20595;-64
2022/10/17 09:25:26;;;;;;;11.48;7.70;;;18.50;99.90;;;;;;5098619;28;20180;-64
2022/10/17 09:28:16;;;;;;;8.77;6.82;;;18.50;99.90;;;;;;5089499;28;20602;-63
2022/10/17 09:30:49;;;;;;;10.63;7.03;;;18.60;99.90;;;;;;5093988;28;20177;-63
2022/10/17 09:33:21;;;;;;;10.40;7.13;;;18.50;99.90;;;;;;5098755;28;20235;-63
2022/10/17 09:35:48;;;;;;;7.95;6.50;;;18.40;99.90;;;;;;5104273;28;20172;-63
2022/10/17 09:38:20;;;;;;;10.23;6.68;;;18.30;99.90;;;;;;5094934;28;20193;-63
2022/10/17 09:41:00;;;;;;;8.02;6.00;;;18.30;99.90;;;;;;5111117;28;20177;-63
2022/10/17 09:43:27;;;;;;;9.07;7.05;;;18.30;99.90;;;;;;5096078;28;20241;-64
2022/10/17 09:46:01;;;;;;;9.70;7.03;;;18.40;99.90;;;;;;5108595;28;20204;-63
2022/10/17 09:48:41;;;;;;;8.48;6.82;;;18.50;99.90;;;;;;5105339;28;20183;-63
2022/10/17 09:51:08;;;;;;;8.40;6.97;;;18.60;99.90;;;;;;5096522;28;20181;-63
2022/10/17 09:53:40;;;;;;;10.35;7.25;;;18.60;99.90;;;;;;5102175;28;20217;-64
2022/10/17 09:56:14;;;;;;;12.80;7.05;;;18.70;99.90;;;;;;5101460;28;20184;-63
2022/10/17 09:58:46;;;;;;;11.85;7.95;;;18.80;99.90;;;;;;5114794;28;20221;-63
2022/10/17 10:01:30;;;;;;;10.40;6.35;;;18.80;99.90;;;;;;5100696;28;20180;-63
2022/10/17 10:04:14;;;;;;;10.98;7.80;;;19.00;99.90;;;;;;5108942;28;20521;-64
2022/10/17 10:06:59;;;;;;;10.13;6.78;;;19.10;99.90;;;;;;5104062;28;20207;-63
2022/10/17 10:09:28;;;;;;;7.85;6.50;;;19.00;99.90;;;;;;5112056;28;20236;-63
2022/10/17 10:11:56;;;;;;;7.95;6.88;;;19.10;99.90;;;;;;5102502;28;20311;-63
2022/10/17 10:14:34;;;;;;;9.85;6.15;;;19.20;99.90;;;;;;5094757;28;20185;-63
2022/10/17 10:17:02;;;;;;;8.77;6.70;;;19.20;99.90;;;;;;5104732;28;20272;-63
2022/10/17 10:19:34;;;;;;;10.93;7.05;;;19.20;99.90;;;;;;5111477;28;20195;-64
2022/10/17 10:22:03;;;;;;;10.05;7.10;;;19.10;99.90;;;;;;5107428;28;20204;-63
2022/10/17 10:24:29;;;;;;;11.73;7.05;;;18.90;99.90;;;;;;5094972;28;20653;-63
2022/10/17 10:27:03;;;;;;;12.10;7.35;;;19.00;99.90;;;;;;5104048;28;20230;-63
2022/10/17 10:29:35;;;;;;;7.65;5.85;;;19.00;99.90;;;;;;5094688;28;20614;-64
2022/10/17 10:32:21;;;;;;;8.57;5.82;;;19.10;99.90;;;;;;5113996;28;20684;-63
2022/10/17 10:34:57;;;;;;;8.32;6.60;;;19.10;99.90;;;;;;5108515;28;20180;-65
2022/10/17 10:37:36;;;;;;;8.32;6.32;;;19.10;99.90;;;;;;5108208;28;20180;-63
2022/10/17 10:40:04;;;;;;;6.45;5.68;;;19.30;99.90;;;;;;5120957;27;20188;-63
2022/10/17 10:42:34;;;;;;;13.43;7.38;;;19.50;99.90;;;;;;5096743;28;20663;-64
2022/10/17 10:45:22;;;;;;;8.57;5.97;;;19.40;99.90;;;;;;5094389;28;20612;-64
2022/10/17 10:48:03;;;;;;;9.50;6.72;;;19.40;99.90;;;;;;5113967;28;20535;-64
2022/10/17 10:50:46;;;;;;;15.55;6.93;;;19.40;99.90;;;;;;5105960;28;20181;-64
2022/10/17 10:53:20;;;;;;;6.57;5.57;;;19.60;99.90;;;;;;5113714;28;20211;-64
2022/10/17 10:55:57;;;;;;;12.20;6.80;;;19.60;99.90;;;;;;5097334;28;20172;-64
2022/10/17 10:58:56;;;;;;;9.48;5.57;;;19.70;99.90;;;;;;5103818;28;20183;-64
2022/10/17 11:01:53;;;;;;;6.97;6.22;;;19.60;99.90;;;;;;5058884;28;20194;-64
2022/10/17 11:04:28;;;;;;;15.65;6.22;;;19.50;99.90;;;;;;5113047;28;20180;-64
2022/10/17 11:07:09;;;;;;;9.60;5.32;;;19.50;99.90;;;;;;5106082;28;20183;-64
2022/10/17 11:09:52;;;;;;;9.93;5.72;;;19.60;99.90;;;;;;5098398;28;20529;-64
2022/10/17 11:12:29;;;;;;;8.02;6.35;;;19.60;99.90;;;;;;5101268;28;20205;-64
2022/10/17 11:15:16;;;;;;;8.70;6.43;;;19.70;99.90;;;;;;5095513;28;20184;-63
2022/10/17 11:18:03;;;;;;;8.50;6.22;;;19.90;99.90;;;;;;5107852;28;20543;-64
2022/10/17 11:20:51;;;;;;;6.47;5.28;;;19.80;99.90;;;;;;5095145;28;20181;-64
2022/10/17 11:23:41;;;;;;;6.60;5.88;;;19.70;99.90;;;;;;5108567;27;20731;-64
2022/10/17 11:26:14;;;;;;;10.13;5.70;;;19.60;99.90;;;;;;5113505;28;20270;-64
2022/10/17 11:28:40;;;;;;;9.07;5.90;;;19.60;99.90;;;;;;5094195;28;20702;-65
2022/10/17 11:31:11;;;;;;;8.25;5.50;;;19.60;99.90;;;;;;5092346;28;20188;-64
2022/10/17 11:33:48;;;;;;;7.97;5.85;;;19.50;99.90;;;;;;5101544;28;20324;-64
2022/10/17 11:36:16;;;;;;;10.68;5.90;;;19.30;99.90;;;;;;5106903;28;20179;-64
2022/10/17 11:38:55;;;;;;;5.97;5.28;;;19.40;99.90;;;;;;5109291;28;20176;-64
2022/10/17 11:41:31;;;;;;;7.95;5.20;;;19.50;99.90;;;;;;5102557;28;20188;-64
2022/10/17 11:44:11;;;;;;;8.32;6.22;;;19.60;99.90;;;;;;5112207;28;20271;-64
2022/10/17 11:46:39;;;;;;;6.45;5.65;;;19.60;99.90;;;;;;5094141;28;20192;-64
2022/10/17 11:49:13;;;;;;;7.35;5.93;;;19.70;99.90;;;;;;5095224;28;20690;-64
2022/10/17 11:51:46;;;;;;;9.65;6.32;;;19.60;99.90;;;;;;5097355;28;20215;-64
2022/10/17 11:54:27;;;;;;;8.07;6.80;;;19.50;99.90;;;;;;5095901;28;20252;-64
2022/10/17 11:56:59;;;;;;;6.93;5.90;;;19.40;99.90;;;;;;5098147;28;20544;-64
2022/10/17 11:59:49;;;;;;;7.80;5.93;;;19.60;99.90;;;;;;5096568;28;20192;-65
2022/10/17 12:02:52;;;;;;;6.95;5.90;;;19.70;99.90;;;;;;5114358;27;20184;-64
2022/10/17 12:05:42;;;;;;;10.38;5.97;;;20.00;99.90;;;;;;5074441;28;20198;-64
2022/10/17 12:08:11;;;;;;;9.15;6.07;;;20.10;99.90;;;;;;5101252;28;20221;-64
2022/10/17 12:10:39;;;;;;;7.50;5.15;;;20.30;99.90;;;;;;5108578;28;20623;-64
2022/10/17 12:13:27;;;;;;;6.10;4.88;;;20.20;99.90;;;;;;5100959;28;20224;-64
2022/10/17 12:15:57;;;;;;;8.07;5.72;;;20.10;99.90;;;;;;5106618;28;20238;-65
2022/10/17 12:18:26;;;;;;;8.07;5.22;;;20.10;99.90;;;;;;5105404;28;20180;-65
2022/10/17 12:20:59;;;;;;;6.88;5.32;;;20.30;99.90;;;;;;5100689;28;20759;-64
2022/10/17 12:23:27;;;;;;;6.22;5.25;;;20.40;99.90;;;;;;5103955;28;20192;-65
2022/10/17 12:26:02;;;;;;;6.45;4.65;;;20.30;99.90;;;;;;5106982;28;20672;-64
2022/10/17 12:28:47;;;;;;;7.53;4.82;;;20.30;99.90;;;;;;5100281;28;20663;-66
2022/10/17 12:31:16;;;;;;;9.40;5.55;;;20.30;99.90;;;;;;5097889;28;20229;-64
2022/10/17 12:33:51;;;;;;;6.97;4.47;;;20.30;99.90;;;;;;5106726;28;20204;-64
2022/10/17 12:36:25;;;;;;;6.47;5.05;;;20.10;99.90;;;;;;5109561;28;20179;-64
2022/10/17 12:39:13;;;;;;;8.02;5.38;;;20.00;99.90;;;;;;5098468;28;20183;-64
2022/10/17 12:41:39;;;;;;;7.90;5.80;;;20.00;99.90;;;;;;5071165;28;20193;-64
2022/10/17 12:44:14;;;;;;;11.48;5.93;;;20.00;99.90;;;;;;5110112;28;20180;-64
2022/10/17 12:46:46;;;;;;;7.20;5.93;;;20.10;99.90;;;;;;5109356;28;20648;-64
2022/10/17 12:49:49;;;;;;;11.80;6.80;;;20.10;99.90;;;;;;5098822;28;20180;-64
2022/10/17 12:52:21;;;;;;;7.22;5.57;;;20.10;99.90;;;;;;5084977;28;20220;-64
2022/10/17 12:54:58;;;;;;;8.40;5.30;;;20.00;99.90;;;;;;5104308;28;20185;-64
2022/10/17 12:57:29;;;;;;;11.18;5.80;;;20.00;99.90;;;;;;5094414;28;20180;-64
2022/10/17 12:59:55;;;;;;;7.65;6.20;;;20.10;99.90;;;;;;5104048;28;20169;-65
2022/10/17 13:02:25;;;;;;;8.50;6.35;;;20.10;99.90;;;;;;5099792;28;20199;-65
2022/10/17 13:04:58;;;;;;;7.60;5.50;;;20.10;99.90;;;;;;5107743;28;20177;-64